sensor_id;sensor_type;location;lat;lon;timestamp;pressure;altitude;pressure_sealevel;temperature;humidity
44140;BME280;29803;51.048;4.686;2023-04-26T00:01:51;101958.09;;;1.21;100.00
44140;BME280;29803;51.048;4.686;2023-04-26T00:04:23;101966.19;;;1.18;100.00
44140;BME280;29803;51.048;4.686;2023-04-26T00:06:54;101968.97;;;1.15;100.00
44140;BME280;29803;51.048;4.686;2023-04-26T00:09:24;101969.28;;;1.09;100.00
44140;BME280;29803;51.048;4.686;2023-04-26T00:11:55;101960.75;;;1.04;100.00
44140;BME280;29803;51.048;4.686;2023-04-26T00:14:25;101966.25;;;0.99;100.00
44140;BME280;29803;51.048;4.686;2023-04-26T00:16:56;101955.91;;;0.95;100.00
44140;BME280;29803;51.048;4.686;2023-04-26T00:19:26;101964.88;;;0.92;100.00
44140;BME280;29803;51.048;4.686;2023-04-26T00:21:57;101966.78;;;0.89;100.00
44140;BME280;29803;51.048;4.686;2023-04-26T00:24:27;101968.66;;;0.87;100.00
44140;BME280;29803;51.048;4.686;2023-04-26T00:26:58;101967.81;;;0.86;100.00
44140;BME280;29803;51.048;4.686;2023-04-26T00:29:29;101962.69;;;0.83;100.00
44140;BME280;29803;51.048;4.686;2023-04-26T00:32:00;101961.81;;;0.83;100.00
44140;BME280;29803;51.048;4.686;2023-04-26T00:34:31;101964.69;;;0.78;100.00
44140;BME280;29803;51.048;4.686;2023-04-26T00:37:01;101958.69;;;0.74;100.00
44140;BME280;29803;51.048;4.686;2023-04-26T00:39:32;101968.56;;;0.71;100.00
44140;BME280;29803;51.048;4.686;2023-04-26T00:42:02;101966.06;;;0.68;100.00
44140;BME280;29803;51.048;4.686;2023-04-26T00:44:33;101968.84;;;0.65;100.00
44140;BME280;29803;51.048;4.686;2023-04-26T00:47:03;101971.59;;;0.63;100.00
44140;BME280;29803;51.048;4.686;2023-04-26T00:49:34;101965.53;;;0.61;100.00
44140;BME280;29803;51.048;4.686;2023-04-26T00:52:04;101965.75;;;0.57;100.00
44140;BME280;29803;51.048;4.686;2023-04-26T00:54:35;101968.63;;;0.52;100.00
44140;BME280;29803;51.048;4.686;2023-04-26T00:57:05;101967.91;;;0.48;100.00
44140;BME280;29803;51.048;4.686;2023-04-26T00:59:36;101958.41;;;0.44;100.00
44140;BME280;29803;51.048;4.686;2023-04-26T01:02:06;101951.19;;;0.48;100.00
44140;BME280;29803;51.048;4.686;2023-04-26T01:04:37;101961.63;;;0.51;100.00
44140;BME280;29803;51.048;4.686;2023-04-26T01:07:10;101964.28;;;0.51;100.00
44140;BME280;29803;51.048;4.686;2023-04-26T01:09:41;101965.16;;;0.50;100.00
44140;BME280;29803;51.048;4.686;2023-04-26T01:12:13;101968.13;;;0.44;100.00
44140;BME280;29803;51.048;4.686;2023-04-26T01:14:43;101967.34;;;0.42;100.00
44140;BME280;29803;51.048;4.686;2023-04-26T01:17:15;101964.78;;;0.40;100.00
44140;BME280;29803;51.048;4.686;2023-04-26T01:19:46;101964.00;;;0.38;100.00
44140;BME280;29803;51.048;4.686;2023-04-26T01:22:17;101971.06;;;0.38;100.00
44140;BME280;29803;51.048;4.686;2023-04-26T01:24:49;101965.91;;;0.35;100.00
44140;BME280;29803;51.048;4.686;2023-04-26T01:27:19;101970.72;;;0.27;100.00
44140;BME280;29803;51.048;4.686;2023-04-26T01:29:50;101968.28;;;0.22;100.00
44140;BME280;29803;51.048;4.686;2023-04-26T01:32:20;101974.72;;;0.16;100.00
44140;BME280;29803;51.048;4.686;2023-04-26T01:34:51;101978.34;;;0.14;100.00
44140;BME280;29803;51.048;4.686;2023-04-26T01:37:21;101977.50;;;0.13;100.00
44140;BME280;29803;51.048;4.686;2023-04-26T01:39:51;101976.72;;;0.11;100.00
44140;BME280;29803;51.048;4.686;2023-04-26T01:42:22;101971.72;;;0.05;100.00
44140;BME280;29803;51.048;4.686;2023-04-26T01:44:52;101971.09;;;0.00;100.00
44140;BME280;29803;51.048;4.686;2023-04-26T01:47:23;101971.22;;;-0.03;100.00
44140;BME280;29803;51.048;4.686;2023-04-26T01:49:55;101968.59;;;-0.03;100.00
44140;BME280;29803;51.048;4.686;2023-04-26T01:52:26;101971.22;;;-0.03;100.00
44140;BME280;29803;51.048;4.686;2023-04-26T01:55:01;101968.72;;;-0.06;100.00
44140;BME280;29803;51.048;4.686;2023-04-26T01:57:32;101963.59;;;-0.09;100.00
44140;BME280;29803;51.048;4.686;2023-04-26T02:00:04;101961.22;;;-0.15;100.00
44140;BME280;29803;51.048;4.686;2023-04-26T02:02:36;101965.78;;;-0.19;100.00
44140;BME280;29803;51.048;4.686;2023-04-26T02:05:08;101958.88;;;-0.21;100.00
44140;BME280;29803;51.048;4.686;2023-04-26T02:07:38;101952.72;;;-0.22;100.00
44140;BME280;29803;51.048;4.686;2023-04-26T02:10:13;101962.44;;;-0.22;100.00
44140;BME280;29803;51.048;4.686;2023-04-26T02:12:45;101954.53;;;-0.22;100.00
44140;BME280;29803;51.048;4.686;2023-04-26T02:15:15;101958.09;;;-0.23;100.00
44140;BME280;29803;51.048;4.686;2023-04-26T02:17:46;101954.81;;;-0.29;100.00
44140;BME280;29803;51.048;4.686;2023-04-26T02:20:18;101957.72;;;-0.35;100.00
44140;BME280;29803;51.048;4.686;2023-04-26T02:22:49;101960.56;;;-0.39;100.00
44140;BME280;29803;51.048;4.686;2023-04-26T02:25:19;101956.28;;;-0.42;100.00
44140;BME280;29803;51.048;4.686;2023-04-26T02:27:50;101957.31;;;-0.46;100.00
44140;BME280;29803;51.048;4.686;2023-04-26T02:30:20;101953.84;;;-0.46;100.00
44140;BME280;29803;51.048;4.686;2023-04-26T02:32:53;101947.78;;;-0.48;100.00
44140;BME280;29803;51.048;4.686;2023-04-26T02:35:23;101948.66;;;-0.48;100.00
44140;BME280;29803;51.048;4.686;2023-04-26T02:37:54;101947.72;;;-0.47;100.00
44140;BME280;29803;51.048;4.686;2023-04-26T02:40:25;101936.22;;;-0.46;100.00
44140;BME280;29803;51.048;4.686;2023-04-26T02:42:55;101937.09;;;-0.45;100.00
44140;BME280;29803;51.048;4.686;2023-04-26T02:45:26;101935.47;;;-0.48;100.00
44140;BME280;29803;51.048;4.686;2023-04-26T02:47:57;101934.69;;;-0.50;100.00
44140;BME280;29803;51.048;4.686;2023-04-26T02:50:27;101934.81;;;-0.53;100.00
44140;BME280;29803;51.048;4.686;2023-04-26T02:52:57;101937.56;;;-0.56;100.00
44140;BME280;29803;51.048;4.686;2023-04-26T02:55:28;101934.94;;;-0.56;100.00
44140;BME280;29803;51.048;4.686;2023-04-26T02:57:58;101931.53;;;-0.58;100.00
44140;BME280;29803;51.048;4.686;2023-04-26T03:00:28;101936.03;;;-0.60;100.00
44140;BME280;29803;51.048;4.686;2023-04-26T03:02:59;101928.25;;;-0.63;100.00
44140;BME280;29803;51.048;4.686;2023-04-26T03:05:30;101935.38;;;-0.65;100.00
44140;BME280;29803;51.048;4.686;2023-04-26T03:08:00;101935.56;;;-0.70;100.00
44140;BME280;29803;51.048;4.686;2023-04-26T03:10:31;101936.47;;;-0.71;100.00
44140;BME280;29803;51.048;4.686;2023-04-26T03:13:03;101935.56;;;-0.70;100.00
44140;BME280;29803;51.048;4.686;2023-04-26T03:15:33;101925.06;;;-0.71;100.00
44140;BME280;29803;51.048;4.686;2023-04-26T03:18:04;101927.59;;;-0.68;100.00
44140;BME280;29803;51.048;4.686;2023-04-26T03:20:34;101928.34;;;-0.66;100.00
44140;BME280;29803;51.048;4.686;2023-04-26T03:23:04;101931.81;;;-0.64;100.00
44140;BME280;29803;51.048;4.686;2023-04-26T03:25:35;101935.22;;;-0.62;100.00
44140;BME280;29803;51.048;4.686;2023-04-26T03:28:06;101937.78;;;-0.61;100.00
44140;BME280;29803;51.048;4.686;2023-04-26T03:30:36;101939.63;;;-0.63;100.00
44140;BME280;29803;51.048;4.686;2023-04-26T03:33:07;101929.16;;;-0.64;100.00
44140;BME280;29803;51.048;4.686;2023-04-26T03:35:37;101930.09;;;-0.65;100.00
44140;BME280;29803;51.048;4.686;2023-04-26T03:38:08;101941.50;;;-0.65;100.00
44140;BME280;29803;51.048;4.686;2023-04-26T03:40:38;101938.84;;;-0.65;100.00
44140;BME280;29803;51.048;4.686;2023-04-26T03:43:09;101929.00;;;-0.61;100.00
44140;BME280;29803;51.048;4.686;2023-04-26T03:45:39;101925.31;;;-0.57;100.00
44140;BME280;29803;51.048;4.686;2023-04-26T03:48:09;101935.78;;;-0.56;100.00
44140;BME280;29803;51.048;4.686;2023-04-26T03:50:40;101919.94;;;-0.54;100.00
44140;BME280;29803;51.048;4.686;2023-04-26T03:53:10;101920.84;;;-0.55;100.00
44140;BME280;29803;51.048;4.686;2023-04-26T03:55:41;101918.34;;;-0.58;100.00
44140;BME280;29803;51.048;4.686;2023-04-26T03:58:11;101920.25;;;-0.62;100.00
44140;BME280;29803;51.048;4.686;2023-04-26T04:00:42;101917.69;;;-0.63;100.00
44140;BME280;29803;51.048;4.686;2023-04-26T04:03:12;101922.19;;;-0.65;100.00
44140;BME280;29803;51.048;4.686;2023-04-26T04:05:42;101928.34;;;-0.66;100.00
44140;BME280;29803;51.048;4.686;2023-04-26T04:08:13;101927.50;;;-0.67;100.00
44140;BME280;29803;51.048;4.686;2023-04-26T04:10:44;101929.41;;;-0.70;100.00
44140;BME280;29803;51.048;4.686;2023-04-26T04:13:15;101930.50;;;-0.74;100.00
44140;BME280;29803;51.048;4.686;2023-04-26T04:15:45;101938.53;;;-0.77;100.00
44140;BME280;29803;51.048;4.686;2023-04-26T04:18:16;101937.75;;;-0.80;100.00
44140;BME280;29803;51.048;4.686;2023-04-26T04:20:46;101938.66;;;-0.81;100.00
44140;BME280;29803;51.048;4.686;2023-04-26T04:23:16;101937.78;;;-0.81;100.00
44140;BME280;29803;51.048;4.686;2023-04-26T04:25:47;101935.97;;;-0.79;100.00
44140;BME280;29803;51.048;4.686;2023-04-26T04:28:18;101941.16;;;-0.77;100.00
44140;BME280;29803;51.048;4.686;2023-04-26T04:30:48;101945.50;;;-0.76;100.00
44140;BME280;29803;51.048;4.686;2023-04-26T04:33:19;101937.59;;;-0.76;100.00
44140;BME280;29803;51.048;4.686;2023-04-26T04:35:49;101945.47;;;-0.75;100.00
44140;BME280;29803;51.048;4.686;2023-04-26T04:38:19;101940.03;;;-0.72;100.00
44140;BME280;29803;51.048;4.686;2023-04-26T04:40:50;101934.69;;;-0.70;100.00
44140;BME280;29803;51.048;4.686;2023-04-26T04:43:20;101944.44;;;-0.72;100.00
44140;BME280;29803;51.048;4.686;2023-04-26T04:45:52;101928.63;;;-0.72;100.00
44140;BME280;29803;51.048;4.686;2023-04-26T04:48:23;101936.44;;;-0.69;100.00
44140;BME280;29803;51.048;4.686;2023-04-26T04:50:53;101936.25;;;-0.66;100.00
44140;BME280;29803;51.048;4.686;2023-04-26T04:53:23;101935.41;;;-0.67;100.00
44140;BME280;29803;51.048;4.686;2023-04-26T04:55:54;101939.56;;;-0.61;100.00
44140;BME280;29803;51.048;4.686;2023-04-26T04:58:24;101940.22;;;-0.56;100.00
44140;BME280;29803;51.048;4.686;2023-04-26T05:00:54;101940.72;;;-0.48;100.00
44140;BME280;29803;51.048;4.686;2023-04-26T05:03:26;101939.41;;;-0.38;100.00
44140;BME280;29803;51.048;4.686;2023-04-26T05:05:56;101944.19;;;-0.27;100.00
44140;BME280;29803;51.048;4.686;2023-04-26T05:08:26;101939.25;;;-0.16;100.00
44140;BME280;29803;51.048;4.686;2023-04-26T05:10:57;101935.13;;;-0.03;100.00
44140;BME280;29803;51.048;4.686;2023-04-26T05:13:28;101951.31;;;0.09;100.00
44140;BME280;29803;51.048;4.686;2023-04-26T05:15:58;101944.00;;;0.15;100.00
44140;BME280;29803;51.048;4.686;2023-04-26T05:18:29;101944.69;;;0.19;100.00
44140;BME280;29803;51.048;4.686;2023-04-26T05:20:59;101948.75;;;0.26;100.00
44140;BME280;29803;51.048;4.686;2023-04-26T05:23:29;101952.88;;;0.32;100.00
44140;BME280;29803;51.048;4.686;2023-04-26T05:26:01;101964.84;;;0.39;100.00
44140;BME280;29803;51.048;4.686;2023-04-26T05:28:31;101960.06;;;0.47;100.00
44140;BME280;29803;51.048;4.686;2023-04-26T05:31:02;101956.91;;;0.58;100.00
44140;BME280;29803;51.048;4.686;2023-04-26T05:33:33;101962.44;;;0.70;100.00
44140;BME280;29803;51.048;4.686;2023-04-26T05:36:03;101967.81;;;0.86;100.00
44140;BME280;29803;51.048;4.686;2023-04-26T05:38:34;101968.00;;;1.00;100.00
44140;BME280;29803;51.048;4.686;2023-04-26T05:41:06;101961.91;;;1.16;100.00
44140;BME280;29803;51.048;4.686;2023-04-26T05:43:36;101962.28;;;1.25;100.00
44140;BME280;29803;51.048;4.686;2023-04-26T05:46:06;101967.28;;;1.32;100.00
44140;BME280;29803;51.048;4.686;2023-04-26T05:48:37;101975.59;;;1.41;100.00
44140;BME280;29803;51.048;4.686;2023-04-26T05:51:07;101969.06;;;1.64;100.00
44140;BME280;29803;51.048;4.686;2023-04-26T05:53:38;101968.63;;;2.21;100.00
44140;BME280;29803;51.048;4.686;2023-04-26T05:56:08;101982.38;;;2.75;100.00
44140;BME280;29803;51.048;4.686;2023-04-26T05:58:39;101978.47;;;3.26;100.00
44140;BME280;29803;51.048;4.686;2023-04-26T06:01:09;101984.88;;;3.81;100.00
44140;BME280;29803;51.048;4.686;2023-04-26T06:03:41;101981.91;;;4.14;100.00
44140;BME280;29803;51.048;4.686;2023-04-26T06:06:13;101973.41;;;4.36;100.00
44140;BME280;29803;51.048;4.686;2023-04-26T06:08:44;101971.84;;;4.60;100.00
44140;BME280;29803;51.048;4.686;2023-04-26T06:11:14;101979.31;;;4.68;100.00
44140;BME280;29803;51.048;4.686;2023-04-26T06:13:45;101976.56;;;4.43;100.00
44140;BME280;29803;51.048;4.686;2023-04-26T06:16:15;101981.69;;;4.31;100.00
44140;BME280;29803;51.048;4.686;2023-04-26T06:18:46;101987.94;;;4.45;100.00
44140;BME280;29803;51.048;4.686;2023-04-26T06:21:16;101993.66;;;4.65;100.00
44140;BME280;29803;51.048;4.686;2023-04-26T06:23:46;101992.47;;;4.97;100.00
44140;BME280;29803;51.048;4.686;2023-04-26T06:26:17;101997.66;;;5.12;100.00
44140;BME280;29803;51.048;4.686;2023-04-26T06:28:47;101994.06;;;5.39;100.00
44140;BME280;29803;51.048;4.686;2023-04-26T06:31:18;102011.84;;;5.51;100.00
44140;BME280;29803;51.048;4.686;2023-04-26T06:33:50;101998.13;;;5.44;100.00
44140;BME280;29803;51.048;4.686;2023-04-26T06:36:21;101995.34;;;5.46;100.00
44140;BME280;29803;51.048;4.686;2023-04-26T06:38:52;101993.31;;;5.37;100.00
44140;BME280;29803;51.048;4.686;2023-04-26T06:41:22;102002.97;;;5.25;100.00
44140;BME280;29803;51.048;4.686;2023-04-26T06:43:53;102002.44;;;5.20;100.00
44140;BME280;29803;51.048;4.686;2023-04-26T06:46:23;102008.53;;;5.22;100.00
44140;BME280;29803;51.048;4.686;2023-04-26T06:48:56;102011.94;;;5.37;100.00
44140;BME280;29803;51.048;4.686;2023-04-26T06:51:27;101998.97;;;5.32;100.00
44140;BME280;29803;51.048;4.686;2023-04-26T06:53:59;101997.28;;;5.44;100.00
44140;BME280;29803;51.048;4.686;2023-04-26T06:56:30;101988.22;;;5.46;100.00
44140;BME280;29803;51.048;4.686;2023-04-26T06:59:02;101996.09;;;5.48;100.00
44140;BME280;29803;51.048;4.686;2023-04-26T07:01:33;101997.38;;;5.42;100.00
44140;BME280;29803;51.048;4.686;2023-04-26T07:04:04;102003.03;;;5.38;100.00
44140;BME280;29803;51.048;4.686;2023-04-26T07:06:38;101996.00;;;5.50;100.00
44140;BME280;29803;51.048;4.686;2023-04-26T07:09:09;101999.81;;;5.45;100.00
44140;BME280;29803;51.048;4.686;2023-04-26T07:11:40;101996.19;;;5.46;100.00
44140;BME280;29803;51.048;4.686;2023-04-26T07:14:10;101996.41;;;5.56;100.00
44140;BME280;29803;51.048;4.686;2023-04-26T07:16:41;101993.22;;;5.64;100.00
44140;BME280;29803;51.048;4.686;2023-04-26T07:19:11;101996.31;;;5.83;100.00
44140;BME280;29803;51.048;4.686;2023-04-26T07:21:41;102000.03;;;6.06;100.00
44140;BME280;29803;51.048;4.686;2023-04-26T07:24:12;101983.91;;;6.33;100.00
44140;BME280;29803;51.048;4.686;2023-04-26T07:26:42;101993.69;;;6.69;100.00
44140;BME280;29803;51.048;4.686;2023-04-26T07:29:13;101988.41;;;6.81;100.00
44140;BME280;29803;51.048;4.686;2023-04-26T07:31:44;101985.44;;;6.96;100.00
44140;BME280;29803;51.048;4.686;2023-04-26T07:34:15;101980.00;;;7.33;100.00
44140;BME280;29803;51.048;4.686;2023-04-26T07:36:45;101986.44;;;7.42;100.00
44140;BME280;29803;51.048;4.686;2023-04-26T07:39:16;101987.19;;;7.55;100.00
44140;BME280;29803;51.048;4.686;2023-04-26T07:41:46;101991.69;;;7.55;100.00
44140;BME280;29803;51.048;4.686;2023-04-26T07:44:17;101990.84;;;7.65;100.00
44140;BME280;29803;51.048;4.686;2023-04-26T07:46:47;101989.78;;;8.01;100.00
44140;BME280;29803;51.048;4.686;2023-04-26T07:49:18;101986.47;;;8.54;100.00
44140;BME280;29803;51.048;4.686;2023-04-26T07:51:49;101996.69;;;8.92;100.00
44140;BME280;29803;51.048;4.686;2023-04-26T07:54:20;101993.78;;;9.58;100.00
44140;BME280;29803;51.048;4.686;2023-04-26T07:56:51;101992.75;;;10.01;100.00
44140;BME280;29803;51.048;4.686;2023-04-26T07:59:22;101992.84;;;9.59;100.00
44140;BME280;29803;51.048;4.686;2023-04-26T08:01:53;101982.50;;;9.54;100.00
44140;BME280;29803;51.048;4.686;2023-04-26T08:04:29;101985.75;;;9.58;100.00
44140;BME280;29803;51.048;4.686;2023-04-26T08:07:01;101985.44;;;9.30;100.00
44140;BME280;29803;51.048;4.686;2023-04-26T08:09:31;101981.72;;;9.43;100.00
44140;BME280;29803;51.048;4.686;2023-04-26T08:12:03;101987.28;;;9.51;100.00
44140;BME280;29803;51.048;4.686;2023-04-26T08:14:33;101988.44;;;9.37;100.00
44140;BME280;29803;51.048;4.686;2023-04-26T08:17:04;101989.81;;;9.52;100.00
44140;BME280;29803;51.048;4.686;2023-04-26T08:19:35;101993.16;;;9.45;100.00
44140;BME280;29803;51.048;4.686;2023-04-26T08:22:06;101992.56;;;9.20;100.00
44140;BME280;29803;51.048;4.686;2023-04-26T08:24:36;101989.28;;;9.17;100.00
44140;BME280;29803;51.048;4.686;2023-04-26T08:27:06;101967.31;;;9.02;100.00
44140;BME280;29803;51.048;4.686;2023-04-26T08:29:37;101978.03;;;9.02;100.00
44140;BME280;29803;51.048;4.686;2023-04-26T08:32:07;101978.25;;;9.10;100.00
44140;BME280;29803;51.048;4.686;2023-04-26T08:34:38;101974.47;;;9.54;100.00
44140;BME280;29803;51.048;4.686;2023-04-26T08:37:09;101973.31;;;10.18;100.00
44140;BME280;29803;51.048;4.686;2023-04-26T08:39:42;101967.63;;;10.32;100.00
44140;BME280;29803;51.048;4.686;2023-04-26T08:42:13;101968.13;;;10.86;100.00
44140;BME280;29803;51.048;4.686;2023-04-26T08:44:44;101971.25;;;11.01;100.00
44140;BME280;29803;51.048;4.686;2023-04-26T08:47:15;101972.91;;;11.40;100.00
44140;BME280;29803;51.048;4.686;2023-04-26T08:49:50;101967.19;;;11.53;100.00
44140;BME280;29803;51.048;4.686;2023-04-26T08:52:28;101962.69;;;12.01;100.00
44140;BME280;29803;51.048;4.686;2023-04-26T08:55:02;101955.97;;;12.60;100.00
44140;BME280;29803;51.048;4.686;2023-04-26T08:57:34;101960.53;;;13.31;100.00
44140;BME280;29803;51.048;4.686;2023-04-26T09:00:05;101955.19;;;13.21;100.00
44140;BME280;29803;51.048;4.686;2023-04-26T09:05:30;101960.13;;;11.52;100.00
44140;BME280;29803;51.048;4.686;2023-04-26T09:08:02;101951.91;;;11.54;100.00
44140;BME280;29803;51.048;4.686;2023-04-26T09:10:34;101958.03;;;11.46;100.00
44140;BME280;29803;51.048;4.686;2023-04-26T09:13:04;101949.75;;;11.10;100.00
44140;BME280;29803;51.048;4.686;2023-04-26T09:15:34;101945.09;;;10.93;100.00
44140;BME280;29803;51.048;4.686;2023-04-26T09:18:17;101951.13;;;10.47;100.00
44140;BME280;29803;51.048;4.686;2023-04-26T09:23:37;101948.09;;;10.21;100.00
44140;BME280;29803;51.048;4.686;2023-04-26T09:26:26;101946.38;;;10.10;100.00
44140;BME280;29803;51.048;4.686;2023-04-26T09:31:46;101951.91;;;9.88;100.00
44140;BME280;29803;51.048;4.686;2023-04-26T09:34:17;101951.84;;;10.08;100.00
44140;BME280;29803;51.048;4.686;2023-04-26T09:36:49;101954.38;;;10.00;100.00
44140;BME280;29803;51.048;4.686;2023-04-26T09:39:32;101954.97;;;10.44;100.00
44140;BME280;29803;51.048;4.686;2023-04-26T09:42:05;101953.78;;;10.37;100.00
44140;BME280;29803;51.048;4.686;2023-04-26T09:44:36;101951.63;;;10.21;100.00
44140;BME280;29803;51.048;4.686;2023-04-26T09:47:08;101955.53;;;10.57;100.00
44140;BME280;29803;51.048;4.686;2023-04-26T09:52:26;101952.56;;;10.99;100.00
44140;BME280;29803;51.048;4.686;2023-04-26T09:54:58;101955.53;;;10.57;100.00
44140;BME280;29803;51.048;4.686;2023-04-26T09:57:28;101950.88;;;10.69;100.00
44140;BME280;29803;51.048;4.686;2023-04-26T09:59:58;101959.91;;;10.58;100.00
44140;BME280;29803;51.048;4.686;2023-04-26T10:02:32;101960.78;;;10.88;100.00
44140;BME280;29803;51.048;4.686;2023-04-26T10:05:03;101959.22;;;10.85;100.00
44140;BME280;29803;51.048;4.686;2023-04-26T10:07:35;101950.28;;;11.24;100.00
44140;BME280;29803;51.048;4.686;2023-04-26T10:10:06;101943.66;;;11.08;100.00
44140;BME280;29803;51.048;4.686;2023-04-26T10:12:37;101946.94;;;10.93;100.00
44140;BME280;29803;51.048;4.686;2023-04-26T10:15:09;101950.03;;;10.88;100.00
44140;BME280;29803;51.048;4.686;2023-04-26T10:17:40;101943.66;;;11.08;100.00
44140;BME280;29803;51.048;4.686;2023-04-26T10:20:11;101946.75;;;11.23;100.00
44140;BME280;29803;51.048;4.686;2023-04-26T10:22:44;101945.47;;;11.37;100.00
44140;BME280;29803;51.048;4.686;2023-04-26T10:25:15;101935.34;;;11.58;100.00
44140;BME280;29803;51.048;4.686;2023-04-26T10:27:46;101939.81;;;11.87;100.00
44140;BME280;29803;51.048;4.686;2023-04-26T10:30:18;101937.19;;;12.05;100.00
44140;BME280;29803;51.048;4.686;2023-04-26T10:35:42;101935.88;;;13.08;98.50
44140;BME280;29803;51.048;4.686;2023-04-26T10:38:28;101934.28;;;12.61;100.00
44140;BME280;29803;51.048;4.686;2023-04-26T10:41:36;101925.97;;;12.55;100.00
44140;BME280;29803;51.048;4.686;2023-04-26T10:43:50;101918.13;;;12.43;99.40
44140;BME280;29803;51.048;4.686;2023-04-26T10:46:33;101924.66;;;12.59;90.77
44140;BME280;29803;51.048;4.686;2023-04-26T10:54:43;101905.91;;;12.67;79.07
44140;BME280;29803;51.048;4.686;2023-04-26T10:57:14;101908.34;;;12.96;94.77
44140;BME280;29803;51.048;4.686;2023-04-26T11:08:07;101898.41;;;14.09;68.38
44140;BME280;29803;51.048;4.686;2023-04-26T11:10:39;101892.88;;;13.76;74.10
44140;BME280;29803;51.048;4.686;2023-04-26T11:13:10;101893.59;;;14.37;78.43
44140;BME280;29803;51.048;4.686;2023-04-26T11:15:40;101901.41;;;13.63;68.56
44140;BME280;29803;51.048;4.686;2023-04-26T11:18:11;101883.56;;;14.13;73.32
44140;BME280;29803;51.048;4.686;2023-04-26T11:20:41;101892.78;;;13.08;78.35
44140;BME280;29803;51.048;4.686;2023-04-26T11:23:13;101883.81;;;13.25;84.36
44140;BME280;29803;51.048;4.686;2023-04-26T11:25:44;101880.69;;;13.64;82.91
44140;BME280;29803;51.048;4.686;2023-04-26T11:28:15;101880.66;;;14.57;67.23
44140;BME280;29803;51.048;4.686;2023-04-26T11:30:45;101871.06;;;14.87;80.99
44140;BME280;29803;51.048;4.686;2023-04-26T11:33:16;101869.66;;;14.91;87.83
44140;BME280;29803;51.048;4.686;2023-04-26T11:35:48;101860.31;;;15.26;84.42
44140;BME280;29803;51.048;4.686;2023-04-26T11:41:07;101872.94;;;15.50;83.76
44140;BME280;29803;51.048;4.686;2023-04-26T11:43:40;101867.84;;;15.55;78.87
44140;BME280;29803;51.048;4.686;2023-04-26T11:46:10;101868.84;;;15.70;71.21
44140;BME280;29803;51.048;4.686;2023-04-26T11:48:41;101870.94;;;15.44;73.65
44140;BME280;29803;51.048;4.686;2023-04-26T11:51:11;101866.38;;;15.44;66.38
44140;BME280;29803;51.048;4.686;2023-04-26T11:53:42;101868.97;;;15.21;76.21
44140;BME280;29803;51.048;4.686;2023-04-26T11:56:14;101863.59;;;14.89;77.45
44140;BME280;29803;51.048;4.686;2023-04-26T11:58:47;101856.91;;;15.40;74.53
44140;BME280;29803;51.048;4.686;2023-04-26T12:01:19;101862.19;;;15.34;75.75
44140;BME280;29803;51.048;4.686;2023-04-26T12:03:50;101857.38;;;14.96;82.19
44140;BME280;29803;51.048;4.686;2023-04-26T12:09:08;101858.31;;;14.38;80.13
44140;BME280;29803;51.048;4.686;2023-04-26T12:11:40;101864.28;;;13.23;74.33
44140;BME280;29803;51.048;4.686;2023-04-26T12:14:10;101864.19;;;12.89;90.21
44140;BME280;29803;51.048;4.686;2023-04-26T12:16:41;101872.22;;;12.81;86.45
44140;BME280;29803;51.048;4.686;2023-04-26T12:19:13;101863.69;;;12.67;84.82
44140;BME280;29803;51.048;4.686;2023-04-26T12:21:45;101866.97;;;12.43;97.55
44140;BME280;29803;51.048;4.686;2023-04-26T12:27:06;101869.34;;;12.29;87.45
44140;BME280;29803;51.048;4.686;2023-04-26T12:29:36;101860.66;;;12.17;85.56
44140;BME280;29803;51.048;4.686;2023-04-26T12:32:07;101865.59;;;12.57;82.62
44140;BME280;29803;51.048;4.686;2023-04-26T12:34:37;101866.91;;;12.71;82.34
44140;BME280;29803;51.048;4.686;2023-04-26T12:37:08;101868.19;;;12.85;90.25
44140;BME280;29803;51.048;4.686;2023-04-26T12:39:39;101858.69;;;13.42;89.21
44140;BME280;29803;51.048;4.686;2023-04-26T12:42:10;101869.53;;;13.59;88.41
44140;BME280;29803;51.048;4.686;2023-04-26T12:44:40;101871.91;;;13.62;74.31
44140;BME280;29803;51.048;4.686;2023-04-26T12:47:10;101870.94;;;13.37;69.28
44140;BME280;29803;51.048;4.686;2023-04-26T12:49:41;101862.16;;;14.11;80.38
44140;BME280;29803;51.048;4.686;2023-04-26T12:52:11;101873.22;;;14.83;72.63
44140;BME280;29803;51.048;4.686;2023-04-26T12:54:42;101867.66;;;15.01;71.74
44140;BME280;29803;51.048;4.686;2023-04-26T12:57:12;101863.13;;;15.57;72.93
44140;BME280;29803;51.048;4.686;2023-04-26T12:59:43;101872.72;;;15.76;65.93
44140;BME280;29803;51.048;4.686;2023-04-26T13:02:14;101865.16;;;15.55;70.37
44140;BME280;29803;51.048;4.686;2023-04-26T13:04:44;101870.47;;;15.32;59.06
44140;BME280;29803;51.048;4.686;2023-04-26T13:07:14;101863.75;;;15.12;63.77
44140;BME280;29803;51.048;4.686;2023-04-26T13:09:45;101869.00;;;14.81;66.71
44140;BME280;29803;51.048;4.686;2023-04-26T13:12:15;101877.97;;;14.89;62.51
44140;BME280;29803;51.048;4.686;2023-04-26T13:14:46;101868.84;;;14.82;60.34
44140;BME280;29803;51.048;4.686;2023-04-26T13:17:16;101865.66;;;14.87;62.12
44140;BME280;29803;51.048;4.686;2023-04-26T13:19:47;101860.56;;;14.84;60.14
44140;BME280;29803;51.048;4.686;2023-04-26T13:22:17;101860.31;;;14.28;57.49
44140;BME280;29803;51.048;4.686;2023-04-26T13:24:48;101860.47;;;14.18;63.23
44140;BME280;29803;51.048;4.686;2023-04-26T13:27:18;101859.13;;;14.06;65.85
44140;BME280;29803;51.048;4.686;2023-04-26T13:29:48;101861.47;;;14.09;73.92
44140;BME280;29803;51.048;4.686;2023-04-26T13:32:20;101854.66;;;14.47;62.65
44140;BME280;29803;51.048;4.686;2023-04-26T13:34:51;101860.06;;;14.88;58.31
44140;BME280;29803;51.048;4.686;2023-04-26T13:37:22;101849.75;;;14.84;55.33
44140;BME280;29803;51.048;4.686;2023-04-26T13:39:52;101841.66;;;14.75;57.31
44140;BME280;29803;51.048;4.686;2023-04-26T13:42:23;101850.03;;;14.23;59.95